Time;durP1;ratioP1;P1;durP2;ratioP2;P2;SDS_P1;SDS_P2;PMS_P1;PMS_P2;Temp;Humidity;BMP_temperature;BMP_pressure;BME280_temperature;BME280_humidity;BME280_pressure;Samples;Min_cycle;Max_cycle;Signal;HPM_P1;HPM_P2
2023/06/01 00:00:46;;;;;;;4.30;3.47;;;;;;;16.46;68.74;96601.31;5025357;28;20228;-58
2023/06/01 00:03:13;;;;;;;4.82;3.42;;;;;;;16.44;69.89;96598.81;5033395;28;20294;-58
2023/06/01 00:05:43;;;;;;;5.32;3.75;;;;;;;16.40;69.33;96602.88;5032771;28;20219;-59
2023/06/01 00:08:11;;;;;;;4.88;3.85;;;;;;;16.37;70.36;96603.19;5034376;28;20662;-57
2023/06/01 00:10:38;;;;;;;4.45;3.83;;;;;;;16.23;70.60;96604.81;5034353;28;20263;-58
2023/06/01 00:13:08;;;;;;;4.40;3.80;;;;;;;16.17;71.04;96607.38;5034950;28;20213;-58
2023/06/01 00:15:37;;;;;;;6.13;3.92;;;;;;;16.24;70.74;96609.16;5046280;28;20238;-57
2023/06/01 00:18:05;;;;;;;5.28;3.50;;;;;;;16.28;70.96;96599.78;5049798;28;20207;-59
2023/06/01 00:20:38;;;;;;;6.85;3.92;;;;;;;16.26;71.67;96598.31;5051197;28;20228;-59
2023/06/01 00:23:05;;;;;;;4.15;3.47;;;;;;;16.09;71.21;96594.91;5033467;28;20287;-59
2023/06/01 00:25:31;;;;;;;9.40;4.32;;;;;;;16.01;73.30;96604.84;5020262;28;20290;-59
2023/06/01 00:28:02;;;;;;;6.40;3.60;;;;;;;16.06;71.27;96594.44;5034303;28;20215;-59
2023/06/01 00:30:30;;;;;;;4.38;3.85;;;;;;;16.00;71.44;96597.84;5034274;28;20584;-59
2023/06/01 00:32:56;;;;;;;3.88;3.47;;;;;;;15.99;72.75;96601.50;5034390;28;20204;-57
2023/06/01 00:35:23;;;;;;;4.97;3.75;;;;;;;15.92;72.76;96602.22;5034458;28;20203;-58
2023/06/01 00:37:49;;;;;;;4.60;3.63;;;;;;;15.96;73.69;96601.88;5051261;28;20207;-58
2023/06/01 00:40:16;;;;;;;6.88;4.00;;;;;;;15.91;74.47;96605.88;5040949;28;20212;-58
2023/06/01 00:42:42;;;;;;;5.28;3.85;;;;;;;15.87;72.73;96598.44;5029517;28;20208;-58
2023/06/01 00:45:09;;;;;;;5.43;4.07;;;;;;;15.83;73.47;96600.63;5034167;28;20212;-57
2023/06/01 00:47:41;;;;;;;7.88;4.00;;;;;;;15.76;73.72;96598.84;5036775;28;20207;-60
2023/06/01 00:50:08;;;;;;;6.43;3.97;;;;;;;15.75;75.63;96595.34;5033673;28;20235;-60
2023/06/01 00:52:34;;;;;;;4.50;3.92;;;;;;;15.68;73.40;96593.53;5035223;28;20208;-59
2023/06/01 00:55:01;;;;;;;4.70;3.30;;;;;;;15.70;74.93;96599.53;5034530;28;20208;-59
2023/06/01 00:57:28;;;;;;;6.97;4.07;;;;;;;15.70;75.70;96592.34;5034004;28;20224;-60
2023/06/01 00:59:55;;;;;;;7.18;4.07;;;;;;;15.79;75.84;96596.66;5048343;28;20196;-58
2023/06/01 01:02:23;;;;;;;5.13;4.20;;;;;;;15.77;75.89;96598.66;5048699;28;20223;-60
2023/06/01 01:04:52;;;;;;;4.82;3.65;;;;;;;15.85;75.35;96597.78;5049342;28;20219;-59
2023/06/01 01:07:22;;;;;;;5.20;4.07;;;;;;;15.83;74.64;96600.63;5044760;28;20216;-59
2023/06/01 01:09:54;;;;;;;4.93;3.95;;;;;;;15.82;75.26;96592.78;5042201;28;20227;-59
2023/06/01 01:12:24;;;;;;;5.82;4.32;;;;;;;15.66;74.18;96596.38;5046483;28;20200;-59
2023/06/01 01:14:55;;;;;;;5.32;4.20;;;;;;;15.73;74.50;96597.34;5025015;28;20821;-59
2023/06/01 01:17:30;;;;;;;4.00;3.60;;;;;;;15.67;75.46;96592.72;5029638;28;20230;-59
2023/06/01 01:20:08;;;;;;;6.22;4.20;;;;;;;15.55;75.52;96596.78;5034178;28;20206;-59
2023/06/01 01:22:53;;;;;;;4.43;4.00;;;;;;;15.59;75.84;96598.09;5024824;28;20222;-59
2023/06/01 01:25:32;;;;;;;7.43;4.13;;;;;;;15.63;76.03;96599.41;5037237;28;20541;-60
2023/06/01 01:28:15;;;;;;;4.82;3.70;;;;;;;15.60;77.12;96597.09;5037327;28;20209;-60
2023/06/01 01:30:44;;;;;;;4.63;3.90;;;;;;;15.68;75.55;96605.03;5017444;28;20223;-60
2023/06/01 01:33:10;;;;;;;6.05;3.83;;;;;;;15.59;76.76;96606.06;5030997;28;20643;-59
2023/06/01 01:35:38;;;;;;;6.53;4.13;;;;;;;15.61;76.72;96597.91;5036980;28;20273;-59
2023/06/01 01:38:07;;;;;;;5.03;3.60;;;;;;;15.60;75.82;96602.41;5037569;28;20662;-59
2023/06/01 01:40:34;;;;;;;6.10;4.18;;;;;;;15.49;75.58;96605.47;5033247;28;20226;-59
2023/06/01 01:43:01;;;;;;;4.72;4.32;;;;;;;15.49;76.12;96602.81;5037218;28;20246;-60
2023/06/01 01:45:28;;;;;;;7.85;4.75;;;;;;;15.40;75.51;96603.81;5036686;28;20222;-59
2023/06/01 01:48:00;;;;;;;4.93;3.88;;;;;;;15.47;76.55;96602.13;5036969;28;20537;-59
2023/06/01 01:50:31;;;;;;;4.07;3.72;;;;;;;15.43;77.86;96600.81;5025678;28;20533;-60
2023/06/01 01:52:57;;;;;;;4.45;4.00;;;;;;;15.38;77.45;96600.50;5036772;28;20305;-59
2023/06/01 01:55:25;;;;;;;5.22;3.95;;;;;;;15.36;78.68;96597.19;5036412;28;20648;-59
2023/06/01 01:57:52;;;;;;;8.48;4.30;;;;;;;15.31;77.34;96599.53;5036426;28;20212;-59
2023/06/01 02:00:19;;;;;;;4.47;4.00;;;;;;;15.23;77.43;96599.56;5035754;28;20208;-58
2023/06/01 02:02:46;;;;;;;5.00;4.13;;;;;;;15.18;78.12;96602.75;5036580;28;20295;-60
2023/06/01 02:05:14;;;;;;;5.22;4.30;;;;;;;15.22;79.34;96603.25;5034614;28;20261;-59
2023/06/01 02:07:40;;;;;;;5.50;4.03;;;;;;;15.21;80.13;96601.56;5035792;28;20196;-60
2023/06/01 02:10:08;;;;;;;4.60;4.07;;;;;;;15.16;78.33;96599.41;5036309;28;20244;-59
2023/06/01 02:12:34;;;;;;;7.93;4.07;;;;;;;15.16;78.52;96599.41;5029507;28;20199;-59
2023/06/01 02:15:00;;;;;;;5.68;4.60;;;;;;;15.08;81.70;96598.63;5033675;28;20213;-59
2023/06/01 02:17:27;;;;;;;4.50;4.03;;;;;;;15.11;79.45;96592.97;5036447;28;20208;-60
2023/06/01 02:19:54;;;;;;;7.33;4.50;;;;;;;15.02;79.18;96592.13;5036545;28;20208;-59
2023/06/01 02:22:22;;;;;;;5.03;3.80;;;;;;;15.07;80.91;96596.97;5036300;28;20236;-60
2023/06/01 02:24:48;;;;;;;5.73;4.00;;;;;;;15.02;81.77;96602.78;5036210;28;20303;-60
2023/06/01 02:27:14;;;;;;;5.03;4.00;;;;;;;15.00;82.21;96596.81;5036426;28;20219;-60
2023/06/01 02:29:41;;;;;;;6.30;4.13;;;;;;;14.93;82.17;96596.69;5035879;28;20211;-60
2023/06/01 02:32:08;;;;;;;5.40;4.23;;;;;;;14.95;83.29;96597.31;5035543;28;20257;-59
2023/06/01 02:34:36;;;;;;;5.33;4.77;;;;;;;14.97;82.92;96604.31;5034998;28;20230;-59
2023/06/01 02:37:04;;;;;;;5.27;4.20;;;;;;;14.90;81.42;96599.69;5036164;28;20581;-59
2023/06/01 02:39:32;;;;;;;6.90;4.30;;;;;;;14.91;82.44;96595.19;5036239;28;20287;-60
2023/06/01 02:41:59;;;;;;;4.40;4.00;;;;;;;14.84;83.90;96600.34;5035935;28;20306;-59
2023/06/01 02:44:25;;;;;;;4.93;4.20;;;;;;;14.82;82.88;96591.72;5035983;28;20215;-59
2023/06/01 02:46:51;;;;;;;4.53;4.00;;;;;;;14.84;82.08;96595.03;5035547;28;20214;-59
2023/06/01 02:49:18;;;;;;;5.03;4.20;;;;;;;14.79;83.03;96592.06;5036157;28;20211;-59
2023/06/01 02:51:44;;;;;;;7.68;4.65;;;;;;;14.71;84.36;96593.91;5037949;28;20262;-59
2023/06/01 02:54:11;;;;;;;5.15;3.88;;;;;;;14.72;84.68;96593.75;5033048;28;20510;-59
2023/06/01 02:56:38;;;;;;;5.20;4.67;;;;;;;14.74;82.59;96588.22;5042245;28;20215;-59
2023/06/01 02:59:05;;;;;;;7.57;4.70;;;;;;;14.56;82.56;96585.75;5038203;28;20273;-59
2023/06/01 03:01:34;;;;;;;7.35;4.40;;;;;;;14.53;84.31;96586.09;5021869;28;20231;-59
2023/06/01 03:04:03;;;;;;;5.47;4.10;;;;;;;14.61;83.40;96595.91;5035432;28;20200;-59
2023/06/01 03:06:31;;;;;;;5.47;4.30;;;;;;;14.59;85.31;96592.59;5035533;28;20228;-59
2023/06/01 03:08:57;;;;;;;6.80;4.43;;;;;;;14.57;84.29;96598.09;5035581;28;20311;-59
2023/06/01 03:11:26;;;;;;;4.90;4.20;;;;;;;14.47;83.36;96597.44;5035168;28;20281;-59
2023/06/01 03:13:56;;;;;;;4.90;4.43;;;;;;;14.43;83.35;96596.09;5032846;28;20208;-60
2023/06/01 03:16:25;;;;;;;5.73;4.20;;;;;;;14.41;83.29;96606.09;5035157;28;20628;-59
2023/06/01 03:18:52;;;;;;;5.03;4.23;;;;;;;14.39;85.55;96605.41;5035217;28;20322;-60
2023/06/01 03:21:19;;;;;;;4.73;4.10;;;;;;;14.48;85.17;96607.09;5035060;28;20269;-60
2023/06/01 03:23:48;;;;;;;7.37;4.13;;;;;;;14.50;86.66;96601.59;5034790;28;20698;-59
2023/06/01 03:26:18;;;;;;;7.07;4.10;;;;;;;14.51;86.08;96601.44;5035266;28;20215;-60
2023/06/01 03:28:45;;;;;;;4.93;4.40;;;;;;;14.49;87.16;96599.94;5035309;28;20294;-60
2023/06/01 03:31:12;;;;;;;5.90;4.67;;;;;;;14.48;87.48;96606.25;5034911;28;20303;-60
2023/06/01 03:33:39;;;;;;;6.90;4.30;;;;;;;14.53;86.69;96615.38;5025304;28;20232;-60
2023/06/01 03:36:07;;;;;;;5.40;4.50;;;;;;;14.50;84.76;96612.22;5026039;28;20214;-60
2023/06/01 03:38:33;;;;;;;4.70;4.30;;;;;;;14.51;85.99;96606.75;5032374;28;20552;-60
2023/06/01 03:41:00;;;;;;;5.07;4.57;;;;;;;14.50;85.57;96610.41;5035107;28;20208;-60
2023/06/01 03:43:26;;;;;;;4.82;4.30;;;;;;;14.47;84.84;96618.72;5024310;28;20223;-59
2023/06/01 03:45:53;;;;;;;5.37;4.47;;;;;;;14.42;84.78;96611.22;5034421;28;20222;-60
2023/06/01 03:48:20;;;;;;;6.83;4.70;;;;;;;14.31;85.57;96616.06;5032268;28;20208;-59
2023/06/01 03:50:48;;;;;;;5.07;4.60;;;;;;;14.36;87.74;96611.06;5026624;28;20216;-60
2023/06/01 03:53:15;;;;;;;6.93;4.40;;;;;;;14.42;88.54;96613.91;5026168;28;20196;-59
2023/06/01 03:55:41;;;;;;;5.13;4.60;;;;;;;14.45;88.19;96610.91;5035306;28;20570;-60
2023/06/01 03:58:08;;;;;;;5.97;4.57;;;;;;;14.53;88.54;96615.38;5036467;28;20212;-59
2023/06/01 04:00:36;;;;;;;6.40;5.17;;;;;;;14.56;89.09;96615.03;5025486;28;20208;-60
2023/06/01 04:03:06;;;;;;;5.67;4.80;;;;;;;14.56;90.10;96617.69;5034355;28;20227;-60
2023/06/01 04:05:36;;;;;;;6.30;4.63;;;;;;;14.60;89.75;96612.88;5034944;28;20299;-60
2023/06/01 04:08:02;;;;;;;4.80;4.40;;;;;;;14.62;88.98;96611.72;5021747;28;20637;-61
2023/06/01 04:10:29;;;;;;;4.50;4.10;;;;;;;14.70;88.52;96619.69;5030454;28;20232;-59
2023/06/01 04:12:55;;;;;;;5.03;4.53;;;;;;;14.64;89.71;96625.69;5027346;28;20208;-58
2023/06/01 04:15:23;;;;;;;4.67;4.27;;;;;;;14.67;89.14;96624.50;5033870;28;20222;-59
2023/06/01 04:17:51;;;;;;;4.97;4.43;;;;;;;14.65;89.46;96622.03;5034232;28;20207;-58
2023/06/01 04:20:18;;;;;;;6.23;4.77;;;;;;;14.67;89.43;96628.00;5051379;28;20223;-59
2023/06/01 04:22:46;;;;;;;5.90;4.43;;;;;;;14.72;88.65;96628.34;5043842;28;20231;-60
2023/06/01 04:25:16;;;;;;;6.77;4.40;;;;;;;14.72;89.56;96631.00;5036939;28;20212;-60
2023/06/01 04:27:45;;;;;;;6.47;5.00;;;;;;;14.76;91.82;96632.34;5034628;28;20219;-59
2023/06/01 04:30:12;;;;;;;6.70;5.17;;;;;;;14.80;94.13;96639.00;5032960;28;20196;-59
2023/06/01 04:32:39;;;;;;;5.90;4.47;;;;;;;14.88;92.65;96644.28;5034292;28;20214;-61
2023/06/01 04:35:06;;;;;;;4.80;4.40;;;;;;;14.98;91.77;96635.28;5034170;28;20200;-58
2023/06/01 04:37:34;;;;;;;6.30;4.60;;;;;;;15.09;90.33;96634.94;5035000;28;20223;-59
2023/06/01 04:40:06;;;;;;;6.17;5.10;;;;;;;15.17;91.33;96637.53;5038864;28;20204;-59
2023/06/01 04:42:33;;;;;;;5.53;4.90;;;;;;;15.34;92.14;96639.13;5040136;28;20227;-59
2023/06/01 04:45:00;;;;;;;5.90;4.90;;;;;;;15.39;92.88;96645.63;5036311;28;20219;-58
2023/06/01 04:47:27;;;;;;;5.25;4.70;;;;;;;15.66;92.35;96648.88;5036805;28;20218;-59
2023/06/01 04:49:54;;;;;;;7.55;4.68;;;;;;;15.78;92.05;96650.13;5029822;28;20235;-60
2023/06/01 04:52:20;;;;;;;6.53;4.85;;;;;;;15.75;92.85;96651.34;5022687;28;20195;-59
2023/06/01 04:54:47;;;;;;;8.52;5.35;;;;;;;15.82;93.15;96652.28;5032887;28;20215;-59
2023/06/01 04:57:16;;;;;;;4.90;4.43;;;;;;;15.94;93.24;96650.06;5028250;28;20573;-60
2023/06/01 04:59:42;;;;;;;6.53;4.50;;;;;;;15.98;94.76;96646.00;5033319;28;20201;-58
2023/06/01 05:02:09;;;;;;;5.43;4.38;;;;;;;16.18;93.14;96646.41;5033998;28;20235;-59
2023/06/01 05:04:36;;;;;;;5.80;4.72;;;;;;;16.28;93.55;96652.31;5040332;28;20215;-57
2023/06/01 05:07:02;;;;;;;5.13;4.63;;;;;;;16.40;93.40;96643.72;5033556;28;20196;-59
2023/06/01 05:09:29;;;;;;;5.50;4.28;;;;;;;16.56;91.35;96650.78;5038970;28;20349;-60
2023/06/01 05:11:56;;;;;;;7.05;5.38;;;;;;;16.70;88.17;96650.00;5044824;28;20220;-59
2023/06/01 05:14:25;;;;;;;6.00;4.88;;;;;;;16.85;87.08;96653.53;5042317;28;20215;-59
2023/06/01 05:16:53;;;;;;;5.82;4.55;;;;;;;17.06;86.38;96649.31;5038155;28;20590;-59
2023/06/01 05:19:20;;;;;;;6.32;4.97;;;;;;;17.27;84.53;96655.59;5036839;28;20212;-59
2023/06/01 05:21:48;;;;;;;6.72;4.78;;;;;;;17.43;81.32;96660.75;5037255;28;20215;-59
2023/06/01 05:24:14;;;;;;;4.75;4.35;;;;;;;17.63;81.20;96653.03;5037502;28;20270;-60
2023/06/01 05:26:41;;;;;;;5.65;4.05;;;;;;;17.76;78.02;96658.53;5037413;28;20203;-59
2023/06/01 05:29:07;;;;;;;6.13;4.63;;;;;;;17.95;74.06;96657.13;5037087;28;20266;-59
2023/06/01 05:31:36;;;;;;;4.68;4.20;;;;;;;18.13;75.45;96648.69;5037015;28;20218;-59
2023/06/01 05:34:02;;;;;;;5.18;4.68;;;;;;;18.21;74.17;96653.91;5037437;28;20213;-60
2023/06/01 05:36:29;;;;;;;7.63;4.82;;;;;;;18.53;68.86;96658.78;5037323;28;20208;-59
2023/06/01 05:38:55;;;;;;;5.90;4.18;;;;;;;18.73;68.42;96657.13;5037315;28;20211;-58
2023/06/01 05:41:22;;;;;;;4.90;4.43;;;;;;;18.97;68.54;96658.53;5037113;28;20207;-59
2023/06/01 05:43:48;;;;;;;6.60;4.70;;;;;;;19.20;67.86;96655.63;5023846;28;20239;-59
2023/06/01 05:46:16;;;;;;;5.00;4.43;;;;;;;19.37;66.31;96655.13;5036354;28;20922;-59
2023/06/01 05:48:43;;;;;;;5.15;4.72;;;;;;;19.57;65.28;96660.59;5036786;28;20223;-60
2023/06/01 05:51:10;;;;;;;7.10;5.15;;;;;;;19.74;62.40;96656.56;5035977;28;20211;-58
2023/06/01 05:53:37;;;;;;;5.53;4.63;;;;;;;19.90;61.26;96655.41;5036376;28;20208;-59
2023/06/01 05:56:03;;;;;;;7.13;5.03;;;;;;;20.04;60.40;96661.63;5036246;28;20237;-59
2023/06/01 05:58:30;;;;;;;5.72;4.43;;;;;;;20.23;58.87;96660.84;5036499;28;20219;-59
2023/06/01 06:00:56;;;;;;;7.60;4.70;;;;;;;20.42;58.00;96660.13;5035700;28;20640;-61
2023/06/01 06:03:23;;;;;;;5.72;4.63;;;;;;;20.49;58.74;96660.94;5036179;28;20314;-59
2023/06/01 06:05:51;;;;;;;6.30;4.57;;;;;;;20.62;61.40;96660.97;5035629;28;20289;-59
2023/06/01 06:08:17;;;;;;;7.63;4.60;;;;;;;20.92;58.52;96663.25;5025273;28;20525;-59
2023/06/01 06:10:44;;;;;;;5.43;4.55;;;;;;;21.16;57.25;96668.03;5035860;28;20251;-59
2023/06/01 06:13:10;;;;;;;7.00;4.57;;;;;;;21.23;57.09;96668.84;5036400;28;20203;-61
2023/06/01 06:15:37;;;;;;;5.50;5.00;;;;;;;21.46;55.94;96669.25;5035542;28;20212;-59
2023/06/01 06:18:03;;;;;;;6.82;5.15;;;;;;;21.55;56.01;96678.72;5036184;28;20215;-60
2023/06/01 06:20:30;;;;;;;6.72;5.15;;;;;;;21.63;55.36;96662.38;5036025;28;20216;-60
2023/06/01 06:22:58;;;;;;;5.80;5.10;;;;;;;21.76;54.72;96669.56;5036144;28;20243;-60
2023/06/01 06:25:24;;;;;;;6.90;5.13;;;;;;;22.09;53.88;96675.69;5035851;28;20212;-59
2023/06/01 06:27:51;;;;;;;5.45;4.90;;;;;;;22.31;54.00;96668.13;5036096;28;20211;-60
2023/06/01 06:30:17;;;;;;;5.13;4.43;;;;;;;22.41;52.77;96665.78;5035575;28;20216;-59
2023/06/01 06:32:44;;;;;;;9.32;4.97;;;;;;;22.45;52.94;96669.69;5036025;28;20211;-60
2023/06/01 06:35:12;;;;;;;5.32;4.75;;;;;;;22.63;53.25;96674.34;5035514;28;20210;-60
2023/06/01 06:37:39;;;;;;;6.93;4.93;;;;;;;22.49;53.61;96670.91;5035898;28;20208;-59
2023/06/01 06:40:08;;;;;;;6.28;5.13;;;;;;;22.92;52.00;96665.63;5035806;28;20211;-59
2023/06/01 06:42:37;;;;;;;6.18;4.78;;;;;;;23.04;52.42;96673.84;5035872;28;20567;-60
2023/06/01 06:45:05;;;;;;;5.88;4.95;;;;;;;23.02;50.24;96674.09;5035414;28;20644;-60
2023/06/01 06:47:31;;;;;;;8.90;4.85;;;;;;;23.05;49.73;96667.41;5036280;28;20235;-59
2023/06/01 06:49:58;;;;;;;7.25;4.75;;;;;;;23.31;49.48;96664.50;5035928;28;20212;-59
2023/06/01 06:52:24;;;;;;;6.68;4.20;;;;;;;23.40;49.95;96671.25;5036913;28;20632;-60
2023/06/01 06:54:50;;;;;;;8.40;4.68;;;;;;;23.60;49.26;96674.59;5037206;28;20200;-59
2023/06/01 06:57:18;;;;;;;6.10;4.53;;;;;;;23.50;47.05;96674.28;5037230;28;20219;-60
2023/06/01 06:59:45;;;;;;;5.40;4.68;;;;;;;23.51;48.37;96669.72;5031733;28;20209;-59
2023/06/01 07:02:11;;;;;;;5.97;4.93;;;;;;;23.23;46.53;96664.78;5030007;28;20204;-59
2023/06/01 07:04:40;;;;;;;5.32;4.82;;;;;;;23.63;47.36;96668.75;5039072;28;20235;-59
2023/06/01 07:07:07;;;;;;;6.93;4.78;;;;;;;23.60;49.59;96668.38;5040750;28;20695;-60
2023/06/01 07:09:33;;;;;;;6.15;4.88;;;;;;;23.93;47.25;96671.53;5040070;28;20267;-62
2023/06/01 07:12:00;;;;;;;6.53;4.60;;;;;;;23.98;48.45;96681.69;5037868;28;20710;-60
2023/06/01 07:14:27;;;;;;;5.15;4.57;;;;;;;23.73;46.40;96679.88;5035358;28;20218;-60
2023/06/01 07:16:54;;;;;;;6.78;4.82;;;;;;;24.07;45.71;96677.59;5035280;28;20227;-60
2023/06/01 07:19:20;;;;;;;6.80;5.13;;;;;;;23.87;44.05;96674.31;5035136;28;20640;-60
2023/06/01 07:21:47;;;;;;;6.90;4.70;;;;;;;24.06;46.11;96673.25;5035251;28;20222;-60
2023/06/01 07:24:14;;;;;;;5.85;4.88;;;;;;;24.22;45.40;96673.50;5035368;28;20224;-58
2023/06/01 07:26:40;;;;;;;5.95;4.82;;;;;;;24.35;46.32;96675.19;5035814;28;20311;-60
2023/06/01 07:29:06;;;;;;;6.88;4.65;;;;;;;24.54;47.16;96671.41;5036996;28;20212;-59
2023/06/01 07:31:38;;;;;;;8.07;5.10;;;;;;;24.64;44.54;96670.81;5038911;28;20211;-60
2023/06/01 07:34:06;;;;;;;6.28;4.95;;;;;;;24.71;45.33;96669.69;5041016;28;20282;-59
2023/06/01 07:36:36;;;;;;;6.32;4.78;;;;;;;25.12;46.13;96668.00;5035461;28;20222;-58
2023/06/01 07:39:05;;;;;;;7.93;5.20;;;;;;;25.38;45.01;96656.75;5035522;28;20208;-59
2023/06/01 07:41:32;;;;;;;5.40;4.88;;;;;;;25.42;45.02;96663.34;5035370;28;20544;-59
2023/06/01 07:43:59;;;;;;;5.05;4.65;;;;;;;25.29;42.76;96655.47;5035070;28;20238;-60
2023/06/01 07:46:25;;;;;;;7.40;4.95;;;;;;;25.30;44.95;96665.22;5034800;28;20539;-59
2023/06/01 07:48:53;;;;;;;8.35;5.40;;;;;;;25.20;45.02;96664.97;5035049;28;20208;-59
2023/06/01 07:51:20;;;;;;;7.80;4.72;;;;;;;25.24;45.41;96666.16;5034909;28;20409;-61
2023/06/01 07:53:46;;;;;;;7.07;4.85;;;;;;;25.55;44.49;96652.28;5034974;28;20200;-59
2023/06/01 07:56:13;;;;;;;8.75;5.20;;;;;;;25.44;43.11;96653.06;5034618;28;20200;-59
2023/06/01 07:58:40;;;;;;;6.40;4.32;;;;;;;26.05;45.42;96654.44;5035221;28;20215;-60
2023/06/01 08:01:06;;;;;;;5.50;4.95;;;;;;;25.88;42.07;96648.13;5034727;28;20215;-59
2023/06/01 08:03:33;;;;;;;6.53;4.90;;;;;;;25.87;44.63;96652.72;5034461;28;20782;-60
2023/06/01 08:06:04;;;;;;;7.47;5.28;;;;;;;25.66;41.24;96656.03;5032579;28;20239;-59
2023/06/01 08:08:31;;;;;;;5.10;4.60;;;;;;;25.77;42.94;96657.91;5025782;28;20527;-59
2023/06/01 08:10:58;;;;;;;6.97;5.22;;;;;;;25.99;44.12;96652.69;5034337;28;20633;-59
2023/06/01 08:13:25;;;;;;;7.32;5.10;;;;;;;25.96;43.30;96659.44;5034686;28;20200;-59
2023/06/01 08:15:52;;;;;;;6.50;5.00;;;;;;;26.14;42.27;96656.56;5034542;28;20266;-59
2023/06/01 08:18:19;;;;;;;7.78;4.93;;;;;;;25.90;41.41;96659.56;5034384;28;20204;-59
2023/06/01 08:20:48;;;;;;;7.32;4.57;;;;;;;25.97;43.98;96646.69;5033934;28;20216;-60
2023/06/01 08:23:17;;;;;;;7.68;5.13;;;;;;;26.07;43.05;96655.03;5034106;28;20680;-59
2023/06/01 08:25:44;;;;;;;7.82;5.00;;;;;;;26.48;42.88;96656.69;5035350;28;20235;-59
2023/06/01 08:28:10;;;;;;;5.82;5.03;;;;;;;26.24;43.19;96653.25;5036096;28;20234;-59
2023/06/01 08:30:36;;;;;;;7.90;5.25;;;;;;;26.57;42.65;96661.47;5035418;28;20683;-59
2023/06/01 08:33:03;;;;;;;12.43;5.57;;;;;;;26.60;43.03;96661.00;5036404;28;20207;-58
2023/06/01 08:35:33;;;;;;;6.50;5.30;;;;;;;26.56;42.83;96662.53;5038552;28;20211;-60
2023/06/01 08:37:59;;;;;;;5.90;5.30;;;;;;;26.04;41.05;96658.22;5041549;28;20240;-61
2023/06/01 08:40:27;;;;;;;5.97;5.38;;;;;;;25.85;41.68;96660.25;5048443;28;20207;-60
2023/06/01 08:42:58;;;;;;;7.95;5.15;;;;;;;25.41;42.26;96660.84;5043584;28;20686;-60
2023/06/01 08:45:24;;;;;;;7.45;4.72;;;;;;;26.09;46.00;96663.75;5039650;28;20208;-59
2023/06/01 08:47:53;;;;;;;6.70;5.15;;;;;;;26.44;42.29;96652.78;5039342;28;20223;-58
2023/06/01 08:50:21;;;;;;;6.90;5.70;;;;;;;26.29;40.92;96647.91;5037868;28;20265;-59
2023/06/01 08:52:49;;;;;;;7.50;5.05;;;;;;;26.33;41.60;96648.25;5038396;28;20219;-60
2023/06/01 08:55:16;;;;;;;7.03;5.60;;;;;;;26.29;42.79;96649.81;5038275;28;20215;-60
2023/06/01 08:57:46;;;;;;;6.30;5.55;;;;;;;26.33;43.27;96648.25;5038402;28;20215;-58
2023/06/01 09:00:14;;;;;;;6.15;5.55;;;;;;;26.17;41.95;96645.25;5018310;28;20216;-60
2023/06/01 09:02:42;;;;;;;7.55;5.05;;;;;;;26.19;42.97;96642.28;5038990;28;20212;-60
2023/06/01 09:05:09;;;;;;;8.40;6.13;;;;;;;26.59;41.29;96647.66;5041898;28;20236;-59
2023/06/01 09:07:35;;;;;;;7.68;5.07;;;;;;;26.79;44.02;96645.31;5042386;28;20207;-59
2023/06/01 09:10:02;;;;;;;7.00;5.28;;;;;;;26.95;43.91;96643.72;5037863;28;20211;-60
2023/06/01 09:12:29;;;;;;;7.30;5.05;;;;;;;26.87;41.24;96638.69;5037942;28;20204;-59
2023/06/01 09:15:10;;;;;;;5.63;5.03;;;;;;;26.54;42.22;96640.25;5037555;28;20280;-60
2023/06/01 09:17:37;;;;;;;6.85;5.40;;;;;;;26.64;44.08;96645.84;5037880;28;20203;-59
2023/06/01 09:20:05;;;;;;;7.55;5.68;;;;;;;26.68;45.56;96636.16;5037895;28;20238;-60
2023/06/01 09:22:42;;;;;;;7.03;6.10;;;;;;;26.91;42.76;96637.97;5038224;28;20212;-59
2023/06/01 09:25:10;;;;;;;9.57;5.43;;;;;;;26.80;43.05;96638.81;5037674;28;20231;-59
2023/06/01 09:27:44;;;;;;;8.93;5.05;;;;;;;27.01;44.09;96629.16;5038483;28;20554;-60
2023/06/01 09:30:13;;;;;;;6.78;5.28;;;;;;;27.00;42.91;96627.50;5038086;28;20215;-59
2023/06/01 09:32:39;;;;;;;10.35;5.75;;;;;;;26.55;43.44;96631.06;5038408;28;20541;-59
2023/06/01 09:35:07;;;;;;;6.45;5.55;;;;;;;26.19;42.87;96631.44;5039930;28;20203;-60
2023/06/01 09:37:34;;;;;;;5.28;4.78;;;;;;;26.94;44.35;96628.50;5054107;28;20679;-60
2023/06/01 09:40:01;;;;;;;7.65;5.80;;;;;;;27.09;42.11;96626.03;5048983;28;20275;-60
2023/06/01 09:42:35;;;;;;;6.88;5.28;;;;;;;27.21;42.55;96624.03;5051123;28;20219;-60
2023/06/01 09:45:18;;;;;;;8.82;5.40;;;;;;;27.17;44.18;96628.34;5032795;28;20226;-59
2023/06/01 09:47:44;;;;;;;6.05;4.93;;;;;;;27.39;42.51;96621.06;5055364;28;20214;-59
2023/06/01 09:50:34;;;;;;;7.38;4.97;;;;;;;27.54;44.10;96618.59;5051134;28;20208;-59
2023/06/01 09:53:01;;;;;;;6.55;5.82;;;;;;;27.35;41.91;96624.53;5051629;28;20206;-60
2023/06/01 09:55:27;;;;;;;7.53;5.43;;;;;;;27.01;41.66;96619.13;5050659;28;20211;-60
2023/06/01 09:58:17;;;;;;;7.65;5.93;;;;;;;27.16;43.65;96615.81;5048027;28;20203;-60
2023/06/01 10:00:46;;;;;;;7.40;5.50;;;;;;;27.39;42.85;96612.91;5026941;28;20200;-61
2023/06/01 10:03:13;;;;;;;7.07;5.57;;;;;;;27.17;44.02;96607.41;5037575;28;20212;-59
2023/06/01 10:05:39;;;;;;;6.10;5.38;;;;;;;27.23;43.28;96611.06;5036842;28;20258;-59
2023/06/01 10:08:05;;;;;;;9.38;6.35;;;;;;;27.43;42.91;96605.06;5025784;28;20200;-60
2023/06/01 10:10:32;;;;;;;6.07;5.20;;;;;;;27.69;44.86;96607.13;5036239;28;20624;-59
2023/06/01 10:12:59;;;;;;;5.70;5.20;;;;;;;27.73;43.81;96599.28;5037045;28;20203;-59
2023/06/01 10:15:25;;;;;;;7.72;5.72;;;;;;;27.89;44.99;96601.09;5036513;28;20199;-60
2023/06/01 10:17:53;;;;;;;7.53;5.80;;;;;;;27.95;42.90;96608.28;5037032;28;20204;-60
2023/06/01 10:20:20;;;;;;;10.00;6.38;;;;;;;27.79;42.72;96595.53;5036587;28;20592;-62
2023/06/01 10:22:47;;;;;;;8.15;5.82;;;;;;;27.96;43.49;96594.41;5036762;28;20231;-59
2023/06/01 10:25:16;;;;;;;6.35;5.28;;;;;;;27.92;44.04;96592.44;5036314;28;20227;-59
2023/06/01 10:27:52;;;;;;;6.72;5.80;;;;;;;27.68;45.90;96591.88;5036800;28;20219;-59
2023/06/01 10:30:18;;;;;;;9.05;5.72;;;;;;;27.83;43.49;96589.38;5036645;28;20211;-60
2023/06/01 10:32:47;;;;;;;7.10;5.40;;;;;;;28.13;45.77;96592.47;5039691;28;20212;-60
2023/06/01 10:36:05;;;;;;;7.00;5.90;;;;;;;27.67;40.57;96587.50;5037215;28;20204;-61
2023/06/01 10:38:33;;;;;;;9.20;5.95;;;;;;;27.58;42.83;96579.00;5036631;28;20269;-60
2023/06/01 10:41:31;;;;;;;6.93;5.88;;;;;;;27.89;43.44;96579.34;5036462;28;20222;-60
2023/06/01 10:43:58;;;;;;;9.52;5.63;;;;;;;28.07;43.18;96581.78;5026573;28;20680;-59
2023/06/01 10:46:35;;;;;;;7.13;6.15;;;;;;;27.65;41.42;96579.63;5036041;28;20281;-60
2023/06/01 10:49:03;;;;;;;6.75;5.90;;;;;;;27.44;41.41;96574.97;5036733;28;20257;-59
2023/06/01 10:51:30;;;;;;;5.30;4.80;;;;;;;28.10;41.28;96573.13;5036000;28;20208;-60
2023/06/01 10:54:29;;;;;;;6.30;5.32;;;;;;;28.11;42.90;96575.59;5036331;28;20203;-60
2023/06/01 10:57:24;;;;;;;6.47;5.65;;;;;;;28.41;41.36;96588.66;5038378;28;20223;-61
2023/06/01 11:00:14;;;;;;;6.88;5.65;;;;;;;28.49;41.04;96571.88;5031835;28;20219;-59
2023/06/01 11:02:59;;;;;;;7.60;5.60;;;;;;;28.00;43.35;96565.63;5031997;28;20215;-60
2023/06/01 11:05:43;;;;;;;6.88;5.80;;;;;;;28.23;43.11;96567.28;5036506;28;20223;-60
2023/06/01 11:08:48;;;;;;;6.38;5.78;;;;;;;28.36;44.11;96566.06;5026993;28;20231;-59
2023/06/01 11:11:16;;;;;;;8.00;5.95;;;;;;;28.18;41.42;96564.50;5038246;28;20752;-64
2023/06/01 11:13:45;;;;;;;7.75;5.30;;;;;;;28.31;44.60;96558.66;5038403;28;20208;-59
2023/06/01 11:16:35;;;;;;;6.15;5.55;;;;;;;28.44;43.66;96557.44;5025001;28;20212;-60
2023/06/01 11:19:02;;;;;;;9.23;5.90;;;;;;;28.55;43.90;96554.56;5037240;28;20204;-60
2023/06/01 11:21:31;;;;;;;5.82;5.25;;;;;;;28.23;41.35;96559.13;5036478;28;20219;-59
2023/06/01 11:24:00;;;;;;;6.78;5.10;;;;;;;28.26;39.86;96550.47;5035943;28;20228;-59
2023/06/01 11:26:32;;;;;;;7.00;5.28;;;;;;;28.48;41.09;96548.50;5020022;28;20234;-60
2023/06/01 11:29:10;;;;;;;5.03;4.53;;;;;;;28.44;41.82;96544.66;5035171;28;20639;-59
2023/06/01 11:31:38;;;;;;;7.50;5.47;;;;;;;28.50;42.87;96548.22;5034861;28;20207;-60
2023/06/01 11:34:05;;;;;;;6.90;4.95;;;;;;;28.34;43.76;96541.81;5022266;28;20199;-59
2023/06/01 11:36:40;;;;;;;6.57;5.47;;;;;;;27.93;41.91;96537.00;5035151;28;20629;-59
2023/06/01 11:39:16;;;;;;;5.32;4.82;;;;;;;28.44;43.73;96533.78;5035126;28;20229;-59
2023/06/01 11:41:45;;;;;;;5.95;5.10;;;;;;;28.46;43.01;96528.88;5035142;28;20218;-60